Time;durP1;ratioP1;P1;durP2;ratioP2;P2;SDS_P1;SDS_P2;PMS_P1;PMS_P2;Temp;Humidity;BMP_temperature;BMP_pressure;BME280_temperature;BME280_humidity;BME280_pressure;Samples;Min_cycle;Max_cycle;Signal;HPM_P1;HPM_P2
2024/02/09 00:00:12;;;;;;;28.05;8.88;;;;;;;-146.27;96.92;41347.16;5069977;28;20059;-74
2024/02/09 00:02:41;;;;;;;32.40;9.48;;;;;;;-146.27;96.87;41365.06;5066312;28;20098;-75
2024/02/09 00:05:09;;;;;;;35.83;9.63;;;;;;;-146.27;96.96;41329.28;5061259;28;20048;-74
2024/02/09 00:07:35;;;;;;;34.67;9.55;;;;;;;-146.27;97.09;41355.13;5069670;28;20043;-75
2024/02/09 00:10:01;;;;;;;30.75;10.50;;;;;;;-146.27;97.22;41347.16;5068394;28;20032;-75
2024/02/09 00:12:27;;;;;;;36.33;11.93;;;;;;;-146.27;97.16;41345.19;5058486;28;20048;-74
2024/02/09 00:14:52;;;;;;;33.47;11.38;;;;;;;-146.27;97.10;41355.13;5068903;28;20024;-75
2024/02/09 00:17:18;;;;;;;31.33;10.55;;;;;;;-146.27;96.76;41357.13;5062824;28;20488;-75
2024/02/09 00:19:43;;;;;;;34.38;11.35;;;;;;;-146.27;96.76;41355.13;5070904;28;20028;-74
2024/02/09 00:22:11;;;;;;;28.75;10.13;;;;;;;-146.27;96.64;41363.06;5052719;28;20024;-74
2024/02/09 00:24:38;;;;;;;38.33;11.57;;;;;;;-146.27;96.64;41377.00;5067702;28;20020;-74
2024/02/09 00:27:04;;;;;;;35.80;12.45;;;;;;;-146.27;96.49;41394.88;5065642;28;20075;-74
2024/02/09 00:29:30;;;;;;;38.30;14.00;;;;;;;-146.27;96.84;41382.97;5068235;28;20039;-74
2024/02/09 00:31:56;;;;;;;43.05;13.38;;;;;;;-146.27;96.76;41378.97;5058969;28;20396;-74
2024/02/09 00:34:22;;;;;;;31.73;14.10;;;;;;;-146.27;96.80;41384.94;5066589;28;20044;-75
2024/02/09 00:36:47;;;;;;;38.78;15.02;;;;;;;-146.27;97.31;41382.97;5065750;28;20032;-74
2024/02/09 00:39:22;;;;;;;40.60;15.32;;;;;;;-146.27;97.44;41335.25;5071124;28;20033;-74
2024/02/09 00:41:47;;;;;;;37.45;14.95;;;;;;;-146.27;97.36;41345.19;5066055;28;20025;-74
2024/02/09 00:44:13;;;;;;;47.35;15.02;;;;;;;-146.27;97.37;41319.34;5068645;28;20053;-74
2024/02/09 00:46:42;;;;;;;36.75;14.85;;;;;;;-146.27;97.07;41313.38;5065083;28;20040;-74
2024/02/09 00:49:09;;;;;;;34.00;15.45;;;;;;;-146.27;96.98;41311.38;5065113;28;20037;-74
2024/02/09 00:51:35;;;;;;;38.55;15.85;;;;;;;-146.27;97.07;41295.47;5057118;28;20092;-75
2024/02/09 00:54:01;;;;;;;44.85;15.55;;;;;;;-146.27;97.16;41321.31;5070032;28;20032;-74
2024/02/09 00:56:27;;;;;;;41.92;14.98;;;;;;;-146.27;97.24;41267.66;5062679;28;20039;-75
2024/02/09 00:58:54;;;;;;;40.92;15.43;;;;;;;-146.27;97.42;41253.72;5068725;28;20027;-74
2024/02/09 01:01:22;;;;;;;38.10;15.75;;;;;;;-146.27;97.51;41158.31;5069017;28;20117;-74
2024/02/09 01:03:48;;;;;;;32.28;14.68;;;;;;;-146.27;97.43;41180.16;5067230;28;20020;-75
2024/02/09 01:06:18;;;;;;;37.58;14.65;;;;;;;-146.27;97.40;41180.16;5063079;28;20658;-74
2024/02/09 01:08:43;;;;;;;41.30;15.13;;;;;;;-146.27;97.63;41144.38;5063977;28;20021;-74
2024/02/09 01:11:11;;;;;;;33.22;14.68;;;;;;;-146.27;97.51;41162.28;5066274;28;20051;-74
2024/02/09 02:46:28;;;;;;;34.38;9.90;;;;;;;-146.27;98.83;40776.59;5055303;28;20043;-72
2024/02/09 03:05:24;;;;;;;24.85;9.70;;;;;;;-146.27;99.00;40615.59;5066770;28;20040;-73
2024/02/09 03:07:49;;;;;;;20.55;9.48;;;;;;;-146.27;99.46;40703.06;5067046;28;20085;-74
2024/02/09 03:10:16;;;;;;;21.27;8.48;;;;;;;-146.27;99.05;40635.47;5068473;28;20020;-74
2024/02/09 03:12:41;;;;;;;21.02;8.55;;;;;;;-146.27;99.15;40679.19;5066580;28;20043;-73
2024/02/09 03:15:09;;;;;;;19.08;7.43;;;;;;;-146.27;99.23;40605.66;5070929;28;20037;-73
2024/02/09 03:17:37;;;;;;;19.25;6.80;;;;;;;-146.27;98.37;40643.41;5072329;28;20047;-74
2024/02/09 03:20:04;;;;;;;14.50;7.32;;;;;;;-146.27;99.11;40603.66;5070623;28;20032;-73
2024/02/09 03:22:30;;;;;;;16.63;7.85;;;;;;;-146.27;98.80;40641.44;5065685;28;20048;-73
2024/02/09 03:25:02;;;;;;;20.98;8.07;;;;;;;-146.27;99.24;40621.56;5060214;28;20155;-71
2024/02/09 03:27:38;;;;;;;21.60;7.10;;;;;;;-146.27;98.75;40599.69;5067957;28;20090;-73
2024/02/09 03:30:05;;;;;;;21.98;7.90;;;;;;;-146.27;98.55;40619.56;5067757;28;20017;-73
2024/02/09 03:32:32;;;;;;;19.92;7.25;;;;;;;-146.27;98.82;40637.47;5063787;28;20480;-71
2024/02/09 03:34:59;;;;;;;17.48;6.88;;;;;;;-146.27;98.85;40593.72;5067439;28;20040;-74
2024/02/09 03:37:32;;;;;;;15.10;6.70;;;;;;;-146.27;98.71;40563.91;5064420;28;20033;-73
2024/02/09 03:40:00;;;;;;;16.17;6.22;;;;;;;-146.27;98.96;40583.78;5067253;28;20419;-73
2024/02/09 03:42:25;;;;;;;16.67;7.22;;;;;;;-146.27;99.24;40563.91;5061297;28;20039;-74
2024/02/09 03:44:51;;;;;;;18.63;7.35;;;;;;;-146.27;98.74;40557.94;5058356;28;20032;-74
2024/02/09 03:47:22;;;;;;;28.33;8.25;;;;;;;-146.27;98.74;40559.94;5070382;28;20484;-76
2024/02/09 03:49:49;;;;;;;21.38;7.72;;;;;;;-146.27;98.77;40603.66;5071007;28;20025;-75
2024/02/09 03:52:21;;;;;;;14.13;7.43;;;;;;;-146.27;98.97;40571.84;5069926;28;20025;-74
2024/02/09 03:54:51;;;;;;;19.60;7.50;;;;;;;-146.27;98.44;40565.91;5071287;28;20381;-73
2024/02/09 03:57:20;;;;;;;16.98;7.88;;;;;;;-146.27;98.30;40559.94;5069616;28;20028;-74
2024/02/09 03:59:46;;;;;;;17.00;7.85;;;;;;;-146.27;98.34;40550.00;5071117;28;20027;-73
2024/02/09 04:02:11;;;;;;;19.35;8.07;;;;;;;-146.27;98.61;40603.66;5067351;28;20020;-74
2024/02/09 04:04:37;;;;;;;17.45;9.43;;;;;;;-146.27;99.40;40534.09;5063357;28;20579;-74
2024/02/09 04:07:05;;;;;;;25.75;8.90;;;;;;;-146.27;99.21;40571.84;5066756;28;20104;-74
2024/02/09 04:09:32;;;;;;;19.65;8.32;;;;;;;-146.27;99.12;40579.81;5069106;28;20025;-73
2024/02/09 04:11:58;;;;;;;19.77;8.30;;;;;;;-146.27;99.58;40524.16;5069041;28;20032;-74
2024/02/09 04:14:23;;;;;;;17.13;8.45;;;;;;;-146.27;99.11;40476.44;5066125;28;20047;-75
2024/02/09 04:16:49;;;;;;;15.48;7.35;;;;;;;-146.27;98.94;40454.59;5069002;28;20536;-72
2024/02/09 04:19:19;;;;;;;16.08;8.25;;;;;;;-146.27;99.08;40464.53;5070869;28;20096;-74
2024/02/09 04:21:48;;;;;;;15.50;7.80;;;;;;;-146.27;98.94;40488.38;5069778;28;20394;-74
2024/02/09 04:24:19;;;;;;;16.17;8.10;;;;;;;-146.27;99.08;40496.31;5065769;28;20044;-73
2024/02/09 04:26:46;;;;;;;15.63;8.15;;;;;;;-146.27;99.87;40476.44;5061739;28;20439;-73
2024/02/09 04:29:14;;;;;;;16.73;7.88;;;;;;;-146.27;99.74;40440.66;5069566;28;20093;-73
2024/02/09 04:31:41;;;;;;;22.67;8.50;;;;;;;-146.27;99.73;40385.00;5069144;28;20037;-73
2024/02/09 04:34:07;;;;;;;14.15;7.82;;;;;;;-146.27;99.16;40456.56;5066730;28;20099;-73
2024/02/09 04:36:33;;;;;;;14.65;8.10;;;;;;;-146.27;99.32;40456.56;5066310;28;20074;-73
2024/02/09 04:38:59;;;;;;;18.90;8.07;;;;;;;-146.27;99.38;40373.09;5070218;28;20081;-73
2024/02/09 04:41:24;;;;;;;16.80;7.63;;;;;;;-146.27;99.29;40464.53;5069903;28;20033;-73
2024/02/09 04:43:52;;;;;;;15.80;7.28;;;;;;;-146.27;99.57;40400.91;5057292;28;20048;-73
2024/02/09 04:46:23;;;;;;;16.65;7.57;;;;;;;-146.27;99.36;40390.97;5064833;28;20536;-72
2024/02/09 04:48:50;;;;;;;13.50;7.55;;;;;;;-146.27;98.99;40347.25;5071013;28;20036;-73
2024/02/09 04:51:18;;;;;;;13.98;7.05;;;;;;;-146.27;99.21;40381.03;5070417;28;20032;-73
2024/02/09 04:53:43;;;;;;;16.38;6.72;;;;;;;-146.27;99.47;40339.28;5068938;28;20029;-73
2024/02/09 04:56:09;;;;;;;16.67;6.63;;;;;;;-146.27;99.58;40351.22;5057505;28;20024;-73
2024/02/09 04:58:36;;;;;;;17.27;7.30;;;;;;;-146.27;99.25;40363.16;5066647;28;20021;-73
2024/02/09 05:01:01;;;;;;;13.15;6.50;;;;;;;-146.27;100.00;40392.97;5065829;28;20702;-73
2024/02/09 05:03:26;;;;;;;18.63;6.55;;;;;;;-146.27;99.01;40357.19;5057970;28;20038;-73
2024/02/09 05:05:52;;;;;;;12.18;6.10;;;;;;;-146.27;99.70;40456.56;5061966;28;20370;-73
2024/02/09 05:08:17;;;;;;;15.75;7.00;;;;;;;-146.27;100.00;40396.94;5068439;28;20032;-72
2024/02/09 05:10:43;;;;;;;17.40;6.53;;;;;;;-146.27;98.80;40335.31;5064677;28;20021;-73
2024/02/09 05:13:08;;;;;;;22.50;7.47;;;;;;;-146.27;99.40;40319.41;5065266;28;20060;-73
2024/02/09 05:15:35;;;;;;;18.40;7.55;;;;;;;-146.27;98.63;40371.09;5057235;28;20031;-73
2024/02/09 05:18:01;;;;;;;16.15;5.70;;;;;;;-146.27;99.17;40337.31;5061957;28;20503;-73
2024/02/09 05:20:26;;;;;;;15.40;6.03;;;;;;;-146.27;99.21;40381.03;5070266;28;20021;-72
2024/02/09 05:22:51;;;;;;;11.45;5.65;;;;;;;-146.27;99.18;40422.78;5069914;28;20039;-71
2024/02/09 05:25:16;;;;;;;12.68;6.30;;;;;;;-146.27;99.27;40301.53;5070003;28;20024;-73
2024/02/09 05:27:45;;;;;;;17.80;6.35;;;;;;;-146.27;99.03;40357.19;5061583;28;20060;-74
2024/02/09 05:30:12;;;;;;;22.00;6.20;;;;;;;-146.27;98.33;40353.22;5060642;28;20029;-73
2024/02/09 05:32:37;;;;;;;13.25;5.30;;;;;;;-146.27;99.44;40420.78;5066363;28;20031;-75
2024/02/09 05:35:03;;;;;;;13.70;5.68;;;;;;;-146.27;99.15;40329.34;5069048;28;20480;-72
2024/02/09 05:37:29;;;;;;;20.13;6.38;;;;;;;-146.27;98.45;40275.69;5066486;28;20028;-73
2024/02/09 05:39:56;;;;;;;14.00;5.45;;;;;;;-146.27;98.24;40444.66;5069784;28;20032;-72
2024/02/09 05:42:21;;;;;;;15.40;5.78;;;;;;;-146.27;98.28;40349.22;5062750;28;20107;-72
2024/02/09 05:44:47;;;;;;;9.90;4.07;;;;;;;-146.27;97.96;40538.06;5063401;28;20552;-73
2024/02/09 05:47:13;;;;;;;16.80;4.75;;;;;;;-146.27;98.32;40390.97;5066242;28;20111;-73
2024/02/09 05:49:38;;;;;;;13.73;5.07;;;;;;;-146.27;97.57;40440.66;5068284;28;20361;-73
2024/02/09 05:52:07;;;;;;;15.43;6.53;;;;;;;-146.27;97.43;40484.41;5067548;28;20032;-74
2024/02/09 05:54:33;;;;;;;21.33;5.78;;;;;;;-146.27;98.57;40492.34;5065233;28;20038;-73
2024/02/09 05:56:58;;;;;;;13.68;4.90;;;;;;;-146.27;97.62;40444.66;5065076;28;20452;-73
2024/02/09 05:59:23;;;;;;;19.80;5.63;;;;;;;-146.27;96.83;40464.53;5062971;28;20048;-73
2024/02/09 06:01:49;;;;;;;14.80;5.43;;;;;;;-146.27;96.96;40496.31;5058762;28;20757;-73
2024/02/09 06:04:14;;;;;;;17.33;5.05;;;;;;;-146.27;97.22;40548.00;5065967;28;20024;-73
2024/02/09 06:06:44;;;;;;;12.68;5.03;;;;;;;-146.27;96.09;40571.84;5066759;28;20024;-73
2024/02/09 06:09:10;;;;;;;11.48;4.57;;;;;;;-146.27;95.96;40520.19;5065451;28;20029;-72
2024/02/09 06:11:35;;;;;;;12.90;4.18;;;;;;;-146.27;95.69;40567.88;5068542;28;20020;-74
2024/02/09 06:14:02;;;;;;;21.10;5.05;;;;;;;-146.27;95.65;40627.50;5069209;28;20388;-73
2024/02/09 06:16:28;;;;;;;10.85;4.78;;;;;;;-146.27;96.38;40607.63;5063094;28;20074;-73
2024/02/09 06:18:53;;;;;;;18.73;4.57;;;;;;;-146.27;96.36;40557.94;5069470;28;20469;-73
2024/02/09 06:21:19;;;;;;;15.43;5.70;;;;;;;-146.27;95.85;40587.75;5068553;28;20380;-73
2024/02/09 06:23:45;;;;;;;22.63;6.30;;;;;;;-146.27;96.44;40544.03;5061908;28;20614;-73
2024/02/09 06:26:11;;;;;;;15.23;4.85;;;;;;;-146.27;96.73;40587.75;5064576;28;20020;-73
2024/02/09 06:28:37;;;;;;;11.98;5.55;;;;;;;-146.27;96.49;40555.97;5064622;28;20028;-73
2024/02/09 06:31:02;;;;;;;13.95;5.72;;;;;;;-146.27;95.82;40623.53;5065927;28;20120;-72
2024/02/09 06:33:28;;;;;;;14.52;5.57;;;;;;;-146.27;95.79;40607.63;5068045;28;20111;-73
2024/02/09 06:35:54;;;;;;;19.20;5.32;;;;;;;-146.27;95.91;40575.84;5079126;28;20507;-73
2024/02/09 06:38:20;;;;;;;13.73;4.40;;;;;;;-146.27;96.71;40591.72;5066885;28;20027;-73
2024/02/09 06:40:46;;;;;;;16.27;4.57;;;;;;;-146.27;95.74;40603.66;5068919;28;20622;-72
2024/02/09 06:43:11;;;;;;;18.60;4.95;;;;;;;-146.27;97.74;40615.59;5068072;28;20052;-73
2024/02/09 06:45:37;;;;;;;10.00;4.90;;;;;;;-146.27;98.29;40492.34;5065297;28;20115;-73
2024/02/09 06:48:06;;;;;;;18.30;5.97;;;;;;;-146.27;97.94;40492.34;5068686;28;20511;-73
2024/02/09 06:50:35;;;;;;;14.48;5.20;;;;;;;-146.27;97.16;40516.19;5070893;28;20032;-72
2024/02/09 06:53:07;;;;;;;16.77;5.53;;;;;;;-146.27;96.52;40571.84;5082703;28;20381;-72
2024/02/09 06:55:36;;;;;;;16.02;5.32;;;;;;;-146.27;97.74;40522.16;5084453;28;20039;-72
2024/02/09 06:58:03;;;;;;;17.50;5.30;;;;;;;-146.27;97.32;40466.50;5068236;28;20024;-73
2024/02/09 07:00:29;;;;;;;13.40;5.57;;;;;;;-146.27;97.36;40440.66;5071872;28;20453;-73
2024/02/09 07:02:55;;;;;;;11.88;4.95;;;;;;;-146.27;98.27;40476.44;5073753;28;20112;-72
2024/02/09 07:05:22;;;;;;;16.90;6.38;;;;;;;-146.27;97.41;40422.78;5071755;28;20104;-72
2024/02/09 07:07:49;;;;;;;17.63;5.95;;;;;;;-146.27;97.24;40436.69;5072168;28;20138;-72
2024/02/09 07:10:17;;;;;;;14.18;6.70;;;;;;;-146.27;98.20;40454.59;5086807;28;20032;-72
2024/02/09 07:12:45;;;;;;;20.10;5.90;;;;;;;-146.27;97.70;40420.78;5077042;28;20712;-72
2024/02/09 07:15:16;;;;;;;14.20;4.70;;;;;;;-146.27;97.07;40416.81;5075045;28;20062;-72
2024/02/09 07:17:45;;;;;;;12.80;4.95;;;;;;;-146.27;97.70;40490.34;5071855;28;20440;-73
2024/02/09 07:20:12;;;;;;;12.70;5.32;;;;;;;-146.27;97.47;40468.50;5069857;28;20151;-72
2024/02/09 07:22:38;;;;;;;10.77;4.78;;;;;;;-146.27;97.16;40454.59;5068696;28;20025;-72
2024/02/09 07:25:04;;;;;;;18.35;4.90;;;;;;;-146.27;96.92;40480.41;5069134;28;20039;-73
2024/02/09 07:27:29;;;;;;;13.13;5.13;;;;;;;-146.27;97.88;40460.53;5062361;28;20463;-72
2024/02/09 07:29:56;;;;;;;19.50;5.35;;;;;;;-146.27;97.29;40468.50;5064499;28;20511;-73
2024/02/09 07:32:21;;;;;;;10.73;5.60;;;;;;;-146.27;97.96;40476.44;5069296;28;20032;-72
2024/02/09 07:34:48;;;;;;;13.60;6.03;;;;;;;-146.27;97.19;40452.59;5065085;28;20040;-72
2024/02/09 07:37:14;;;;;;;13.75;5.55;;;;;;;-146.27;97.23;40492.34;5068913;28;20115;-72
2024/02/09 07:39:40;;;;;;;14.98;5.80;;;;;;;-146.27;97.85;40551.97;5071010;28;20024;-72
2024/02/09 07:42:07;;;;;;;13.32;5.28;;;;;;;-146.27;97.87;40524.16;5070420;28;20191;-72
2024/02/09 07:44:34;;;;;;;15.68;6.18;;;;;;;-146.27;97.78;40520.19;5064219;28;20028;-73
2024/02/09 07:47:04;;;;;;;15.73;5.50;;;;;;;-146.27;97.56;40520.19;5069776;28;20103;-75
2024/02/09 07:49:31;;;;;;;14.02;4.93;;;;;;;-146.27;98.91;40555.97;5071143;28;20420;-72
2024/02/09 07:51:58;;;;;;;13.10;5.25;;;;;;;-146.27;98.08;40498.31;5080663;28;20036;-72
2024/02/09 07:54:24;;;;;;;16.45;5.20;;;;;;;-146.27;98.08;40555.97;5073705;28;20039;-72
2024/02/09 07:56:49;;;;;;;13.40;4.85;;;;;;;-146.27;97.46;40559.94;5072415;28;20024;-72
2024/02/09 07:59:14;;;;;;;15.88;4.60;;;;;;;-146.27;97.99;40591.72;5071888;28;20620;-72
2024/02/09 08:01:41;;;;;;;10.68;3.85;;;;;;;-146.27;98.32;40623.53;5071648;28;20050;-72
2024/02/09 08:04:07;;;;;;;12.05;4.53;;;;;;;-146.27;97.32;40675.22;5072242;28;20024;-72
2024/02/09 08:06:33;;;;;;;6.53;4.03;;;;;;;-146.27;97.79;40772.63;5071022;28;20405;-72
2024/02/09 08:08:59;;;;;;;13.27;4.38;;;;;;;-146.27;98.24;40699.06;5071418;28;20047;-72
2024/02/09 08:11:26;;;;;;;11.73;3.70;;;;;;;-146.27;98.01;40784.56;5071769;28;20469;-70
2024/02/09 08:13:52;;;;;;;15.65;4.43;;;;;;;-146.27;98.33;40834.25;5071460;28;20447;-73
2024/02/09 08:16:20;;;;;;;6.43;3.88;;;;;;;-146.27;98.26;40909.78;5072006;28;20028;-73
2024/02/09 08:18:45;;;;;;;11.30;4.25;;;;;;;-146.27;97.65;40999.25;5071149;28;20457;-73
2024/02/09 08:21:11;;;;;;;7.13;3.85;;;;;;;-146.27;97.91;40973.41;5071314;28;20032;-73
2024/02/09 08:23:38;;;;;;;13.63;4.72;;;;;;;-146.27;97.04;41013.16;5076141;28;20027;-71
2024/02/09 08:26:03;;;;;;;10.15;3.47;;;;;;;-146.27;96.49;41064.84;5071868;28;20301;-72
2024/02/09 08:28:28;;;;;;;13.98;4.22;;;;;;;-146.27;96.35;41146.38;5071468;28;20021;-73
2024/02/09 08:30:54;;;;;;;8.65;3.40;;;;;;;-146.27;95.89;41184.16;5071758;28;20062;-73
2024/02/09 08:33:19;;;;;;;9.30;3.13;;;;;;;-146.27;96.40;41160.28;5075821;28;20024;-71
2024/02/09 08:35:45;;;;;;;15.55;3.63;;;;;;;-146.27;96.97;41206.00;5090784;28;20385;-74
2024/02/09 08:38:10;;;;;;;12.32;3.08;;;;;;;-146.27;96.57;41196.06;5070878;28;20021;-72
2024/02/09 08:40:35;;;;;;;9.95;3.38;;;;;;;-146.27;95.98;41323.31;5078075;28;20024;-72
2024/02/09 08:43:01;;;;;;;8.43;3.10;;;;;;;-146.27;95.63;41319.34;5070998;28;20032;-73
2024/02/09 08:45:27;;;;;;;5.97;3.10;;;;;;;-146.27;96.81;41396.88;5070554;28;20469;-72
2024/02/09 08:47:52;;;;;;;10.85;2.97;;;;;;;-146.27;96.46;41524.13;5070954;28;20029;-71
2024/02/09 08:50:18;;;;;;;11.45;3.20;;;;;;;-146.27;95.26;41597.69;5070515;28;20031;-73
2024/02/09 08:52:43;;;;;;;11.68;2.97;;;;;;;-146.27;95.59;41575.81;5069407;28;20028;-72
2024/02/09 08:55:09;;;;;;;7.30;2.90;;;;;;;-146.27;95.29;41502.25;5070348;28;20039;-73
2024/02/09 08:57:35;;;;;;;10.90;3.20;;;;;;;-146.27;94.72;41557.94;5066269;28;20078;-71
2024/02/09 09:00:00;;;;;;;13.68;3.08;;;;;;;-146.27;94.58;41526.13;5071347;28;20468;-73
2024/02/09 09:02:26;;;;;;;8.60;2.78;;;;;;;-146.27;94.70;41561.91;5090009;28;20028;-73
2024/02/09 09:04:52;;;;;;;8.00;2.85;;;;;;;-146.27;94.22;41653.38;5091392;28;20027;-73
2024/02/09 09:07:17;;;;;;;6.18;2.97;;;;;;;-146.27;95.21;41707.06;5076070;28;20480;-71
2024/02/09 09:09:43;;;;;;;8.82;3.17;;;;;;;-146.27;94.32;41718.97;5070307;28;20052;-72
2024/02/09 09:12:09;;;;;;;5.70;2.72;;;;;;;-146.27;94.40;41639.44;5070258;28;20029;-73
2024/02/09 09:14:36;;;;;;;8.00;3.13;;;;;;;-146.27;94.61;41675.22;5070789;28;20046;-73
2024/02/09 09:17:02;;;;;;;11.30;3.58;;;;;;;-146.27;95.05;41701.09;5070901;28;20025;-72
2024/02/09 09:19:27;;;;;;;9.73;3.28;;;;;;;-146.27;96.92;41689.16;5070706;28;20077;-73
2024/02/09 09:21:52;;;;;;;6.80;2.95;;;;;;;-146.27;96.78;41605.66;5080334;28;20125;-73
2024/02/09 09:24:19;;;;;;;8.48;2.72;;;;;;;-146.27;95.67;41756.75;5077327;28;20032;-72
2024/02/09 09:26:45;;;;;;;7.05;3.17;;;;;;;-146.27;96.47;41812.44;5089686;28;20023;-72
2024/02/09 09:29:10;;;;;;;7.15;3.45;;;;;;;-146.27;97.46;41722.97;5089576;28;20466;-73
2024/02/09 09:31:36;;;;;;;12.02;3.42;;;;;;;-146.27;97.01;41661.31;5089695;28;20399;-72
2024/02/09 09:34:01;;;;;;;10.57;3.15;;;;;;;-146.27;97.75;41669.28;5090389;28;20044;-72
2024/02/09 09:36:26;;;;;;;6.38;3.20;;;;;;;-146.27;97.38;41551.97;5087287;28;20094;-72
2024/02/09 09:38:52;;;;;;;8.82;3.03;;;;;;;-146.27;96.70;41575.81;5070292;28;20028;-72
2024/02/09 09:41:19;;;;;;;9.45;2.97;;;;;;;-146.27;96.25;41506.22;5086152;28;20043;-72
2024/02/09 09:43:47;;;;;;;10.10;2.97;;;;;;;-146.27;96.77;41363.06;5090520;28;20039;-75
2024/02/09 09:46:12;;;;;;;10.05;2.95;;;;;;;-146.27;96.26;41490.31;5090593;28;20557;-73
2024/02/09 09:48:41;;;;;;;7.80;3.33;;;;;;;-146.27;95.85;41585.75;5090442;28;20031;-73
2024/02/09 09:51:06;;;;;;;15.18;3.60;;;;;;;-146.27;95.32;41673.25;5081508;28;20036;-73
2024/02/09 09:53:40;;;;;;;11.75;3.03;;;;;;;-146.27;95.82;41756.75;5070224;28;20025;-73
2024/02/09 09:56:08;;;;;;;;;;;;;;;-146.27;94.83;41673.25;5070874;28;20055;-73
2024/02/09 09:58:37;;;;;;;16.80;3.35;;;;;;;-146.27;94.79;41774.66;5070127;28;19909;-73
2024/02/09 10:01:07;;;;;;;12.35;3.05;;;;;;;-146.27;94.96;41768.69;5082319;28;20055;-74
2024/02/09 10:03:33;;;;;;;11.27;2.58;;;;;;;-146.27;94.67;41768.69;5067476;28;20032;-73
2024/02/09 10:05:59;;;;;;;6.70;2.22;;;;;;;-146.27;94.04;41792.56;5051030;28;20393;-74
2024/02/09 10:08:28;;;;;;;10.65;3.00;;;;;;;-146.27;93.19;41760.72;5068685;28;20028;-73
2024/02/09 10:10:55;;;;;;;8.77;2.85;;;;;;;-146.27;93.55;41891.97;5069657;28;20017;-73
2024/02/09 10:13:23;;;;;;;11.77;2.55;;;;;;;-146.27;92.91;41872.09;5069668;28;20017;-73
2024/02/09 10:15:50;;;;;;;8.07;2.20;;;;;;;-146.27;92.52;42057.00;5069876;28;20024;-73
2024/02/09 10:18:16;;;;;;;7.20;2.22;;;;;;;-146.27;91.98;41999.34;5069976;28;20492;-75
2024/02/09 10:20:42;;;;;;;6.50;2.20;;;;;;;-146.27;92.01;42035.16;5070021;28;20031;-73
2024/02/09 10:23:08;;;;;;;7.60;1.70;;;;;;;-146.27;92.44;42124.63;5082296;28;20032;-73
2024/02/09 10:25:34;;;;;;;7.35;1.95;;;;;;;-146.27;91.97;42003.31;5085332;28;20021;-73
2024/02/09 10:28:00;;;;;;;8.75;2.03;;;;;;;-146.27;90.94;42023.22;5073928;28;20020;-72
2024/02/09 10:30:27;;;;;;;5.05;1.90;;;;;;;-146.27;91.15;42062.97;5073231;28;20024;-74
2024/02/09 10:32:52;;;;;;;7.30;1.63;;;;;;;-146.27;91.19;42031.16;5073960;28;20104;-72
2024/02/09 10:35:18;;;;;;;6.70;1.65;;;;;;;-146.27;91.44;42031.16;5073742;28;20465;-72
2024/02/09 10:37:43;;;;;;;6.10;1.83;;;;;;;-146.27;91.53;42031.16;5073815;28;20021;-74
2024/02/09 10:40:10;;;;;;;6.88;1.88;;;;;;;-146.27;91.17;41931.75;5073111;28;20024;-74
2024/02/09 10:42:40;;;;;;;7.97;2.22;;;;;;;-146.27;90.32;41884.00;5071030;28;20043;-73
2024/02/09 10:45:09;;;;;;;5.85;2.10;;;;;;;-146.27;91.30;41955.59;5073564;28;20055;-73
2024/02/09 10:47:39;;;;;;;4.40;1.70;;;;;;;-146.27;93.04;41939.69;5081516;28;20028;-74
2024/02/09 10:50:06;;;;;;;7.13;1.88;;;;;;;-146.27;93.19;41868.09;5093845;28;20142;-73
2024/02/09 10:52:35;;;;;;;3.90;1.98;;;;;;;-146.27;95.04;41903.91;5093798;28;20031;-73
2024/02/09 10:55:05;;;;;;;5.15;1.98;;;;;;;-146.27;94.32;41830.34;5091597;28;20380;-75
2024/02/09 10:57:34;;;;;;;7.75;2.05;;;;;;;-146.27;93.49;41718.97;5071249;28;20067;-72
2024/02/09 11:00:04;;;;;;;6.97;2.42;;;;;;;-146.27;94.00;41796.53;5073464;28;20047;-71
2024/02/09 11:02:30;;;;;;;6.22;2.42;;;;;;;-146.27;94.31;41709.03;5073302;28;20059;-72
2024/02/09 11:04:58;;;;;;;7.28;2.20;;;;;;;-146.27;93.29;41683.19;5073231;28;20052;-73
2024/02/09 11:07:25;;;;;;;7.40;1.98;;;;;;;-146.27;94.16;41788.56;5073207;28;20021;-73
2024/02/09 11:09:50;;;;;;;4.30;2.03;;;;;;;-146.27;95.66;41760.72;5072597;28;20031;-72
2024/02/09 11:12:21;;;;;;;7.43;2.28;;;;;;;-146.27;95.52;41895.94;5071312;28;20025;-72
2024/02/09 11:14:46;;;;;;;7.30;2.20;;;;;;;-146.27;95.47;41856.19;5079182;28;20023;-72
2024/02/09 11:17:16;;;;;;;6.93;2.55;;;;;;;-146.27;95.50;41895.94;5078021;28;20039;-72
2024/02/09 11:19:42;;;;;;;8.15;2.75;;;;;;;-146.27;94.29;41872.09;5072840;28;20040;-72
2024/02/09 11:22:10;;;;;;;5.43;2.47;;;;;;;-146.27;93.81;41709.03;5072961;28;20056;-73
2024/02/09 11:24:35;;;;;;;5.75;2.22;;;;;;;-146.27;92.89;41880.03;5073096;28;20496;-71
2024/02/09 11:27:03;;;;;;;9.43;2.72;;;;;;;-146.27;92.08;41965.53;5069779;28;20071;-72
2024/02/09 11:29:32;;;;;;;7.20;2.45;;;;;;;-146.27;92.55;42062.97;5072567;28;20028;-72
2024/02/09 11:32:01;;;;;;;2.28;1.73;;;;;;;-146.27;91.29;42029.19;5072450;28;20085;-73
2024/02/09 11:34:28;;;;;;;7.25;2.15;;;;;;;-146.27;91.15;42114.69;5087742;28;20040;-71
2024/02/09 11:36:58;;;;;;;7.97;1.95;;;;;;;-146.27;90.52;41967.53;5092910;28;20032;-72
2024/02/09 11:39:25;;;;;;;5.28;2.00;;;;;;;-146.27;90.13;41987.41;5087151;28;20437;-71
2024/02/09 11:41:50;;;;;;;10.93;1.90;;;;;;;-146.27;88.64;42031.16;5070265;28;20024;-71
2024/02/09 11:44:17;;;;;;;9.55;1.80;;;;;;;-146.27;89.49;42082.88;5072539;28;20032;-72
2024/02/09 11:46:42;;;;;;;4.85;1.77;;;;;;;-146.27;88.83;42267.81;5072455;28;20385;-72
2024/02/09 11:49:08;;;;;;;4.25;1.77;;;;;;;-146.27;87.86;42112.69;5072509;28;20035;-72
2024/02/09 11:51:34;;;;;;;9.85;1.63;;;;;;;-146.27;88.88;42222.06;5072469;28;20107;-72
2024/02/09 11:54:01;;;;;;;3.65;1.30;;;;;;;-146.27;87.89;42259.84;5071715;28;20060;-72
2024/02/09 11:56:26;;;;;;;6.63;1.52;;;;;;;-146.27;87.78;42192.25;5071524;28;20103;-71
2024/02/09 11:58:52;;;;;;;5.57;1.60;;;;;;;-146.27;87.21;42232.00;5071412;28;20497;-71
2024/02/09 12:01:18;;;;;;;5.97;1.60;;;;;;;-146.27;87.46;42323.50;5072211;28;20036;-71
2024/02/09 12:03:44;;;;;;;5.18;2.00;;;;;;;-146.27;86.84;42287.69;5071884;28;20029;-71
2024/02/09 12:06:10;;;;;;;11.40;1.55;;;;;;;-146.27;86.18;42458.72;5072117;28;20051;-72
2024/02/09 12:08:36;;;;;;;7.85;1.55;;;;;;;-146.27;86.10;42434.84;5072031;28;20028;-73
2024/02/09 12:11:01;;;;;;;9.00;1.60;;;;;;;-146.27;86.21;42468.66;5072170;28;20028;-72
2024/02/09 12:13:28;;;;;;;2.35;0.98;;;;;;;-146.27;86.92;42516.41;5080584;28;20036;-71
2024/02/09 12:15:54;;;;;;;8.18;1.60;;;;;;;-146.27;85.80;42548.22;5072001;28;20024;-72
2024/02/09 12:18:22;;;;;;;4.03;1.05;;;;;;;-146.27;85.48;42524.34;5072175;28;20533;-72
2024/02/09 12:20:48;;;;;;;12.48;1.50;;;;;;;-146.27;85.46;42572.09;5071788;28;20020;-73
2024/02/09 12:23:14;;;;;;;2.78;1.00;;;;;;;-146.27;84.61;42621.81;5069097;28;20147;-73
2024/02/09 12:25:40;;;;;;;6.15;1.30;;;;;;;-146.27;84.64;42548.22;5069077;28;20035;-73
2024/02/09 12:28:09;;;;;;;5.32;1.20;;;;;;;-146.27;84.50;42701.34;5071695;28;20098;-74
2024/02/09 12:30:45;;;;;;;7.95;1.40;;;;;;;-146.27;84.21;42631.75;5071282;28;20464;-73
2024/02/09 12:33:11;;;;;;;3.17;1.15;;;;;;;-146.27;83.71;42568.09;5071526;28;21356;-73
2024/02/09 12:35:37;;;;;;;9.77;1.63;;;;;;;-146.27;83.71;42675.50;5069998;28;20040;-73
2024/02/09 12:38:03;;;;;;;5.43;1.48;;;;;;;-146.27;83.47;42609.88;5070983;28;20028;-73
2024/02/09 12:40:29;;;;;;;5.72;1.98;;;;;;;-146.27;83.83;42735.16;5082205;28;20032;-72
2024/02/09 12:42:54;;;;;;;4.95;1.50;;;;;;;-146.27;83.80;42747.09;5071247;28;20366;-72
2024/02/09 12:45:26;;;;;;;4.35;1.35;;;;;;;-146.27;83.80;42774.94;5070546;28;20024;-73
2024/02/09 12:47:51;;;;;;;5.97;1.73;;;;;;;-146.27;83.44;42695.38;5070526;28;20031;-73
2024/02/09 12:50:20;;;;;;;4.85;1.35;;;;;;;-146.27;83.05;42528.31;5070213;28;20435;-73
2024/02/09 12:52:52;;;;;;;5.55;1.77;;;;;;;-146.27;83.35;42599.94;5070122;28;20103;-73
2024/02/09 12:55:19;;;;;;;4.47;1.75;;;;;;;-146.27;83.85;42723.22;5070849;28;20528;-73
2024/02/09 12:57:46;;;;;;;6.30;1.63;;;;;;;-146.27;83.42;42647.66;5069884;28;20017;-73